Terminal Aerodrome Forecast
Issued by NWS

Home | Current Version | Previous Version | Text Only | Print | Product List | Glossary On
Versions: 1 2 3 4 5 6 7 8 9 10 11 12 13 14 15 16 17 18 19 20 21 22 23 24 25 26 27 28 29 30 31 32 33 34 35 36 37 38 39 40 41 42
000
FTUS45 KGJT 230529
TAFASE
TAFASE
TAF
KASE 230529Z 2306/2406 14005KT P6SM VCSH BKN080
      TEMPO 2306/2309 VRB10G20KT P6SM -SHRA SCT035 OVC060
     FM231000 VRB03KT P6SM VCSH SCT050 BKN100
     FM231500 VRB03KT P6SM VCSH SCT050 BKN090
     FM231900 23010KT P6SM VCTS SCT040 BKN060CB
     FM240300 20005KT P6SM VCSH SCT050 BKN090=

USA.gov is the U.S. government's official web portal to all federal, state and local government web resources and services.